Time;durP1;ratioP1;P1;durP2;ratioP2;P2;SDS_P1;SDS_P2;PMS_P1;PMS_P2;Temp;Humidity;BMP_temperature;BMP_pressure;BME280_temperature;BME280_humidity;BME280_pressure;Samples;Min_cycle;Max_cycle;Signal;HPM_P1;HPM_P2
2023/08/21 00:01:30;;;;;;;7.57;2.50;;;;;;;19.76;100.00;102118.72;5292366;28;20406;-68
2023/08/21 00:04:01;;;;;;;6.68;2.55;;;;;;;19.76;100.00;102120.56;5293244;28;20028;-68
2023/08/21 00:06:33;;;;;;;7.20;2.63;;;;;;;19.73;100.00;102119.03;5284070;28;20466;-68
2023/08/21 00:09:04;;;;;;;7.00;2.60;;;;;;;19.81;100.00;102130.97;5289569;28;20025;-69
2023/08/21 00:11:35;;;;;;;8.93;2.25;;;;;;;19.83;100.00;102143.38;5298973;28;20036;-69
2023/08/21 00:14:07;;;;;;;6.45;2.25;;;;;;;19.75;100.00;102127.84;5286869;28;20046;-69
2023/08/21 00:16:38;;;;;;;7.15;2.50;;;;;;;19.81;100.00;102117.41;5280358;28;20573;-69
2023/08/21 00:19:10;;;;;;;9.77;2.90;;;;;;;19.80;100.00;102111.16;5278318;28;20134;-68
2023/08/21 00:21:42;;;;;;;5.50;2.70;;;;;;;19.64;100.00;102102.78;5279149;28;20021;-69
2023/08/21 00:24:13;;;;;;;5.38;2.30;;;;;;;19.56;100.00;102109.75;5278712;28;20202;-68
2023/08/21 00:26:45;;;;;;;5.72;2.38;;;;;;;19.59;100.00;102109.47;5290728;28;20027;-69
2023/08/21 00:29:16;;;;;;;7.57;2.60;;;;;;;19.52;100.00;102099.34;5290349;28;20035;-69
2023/08/21 00:31:47;;;;;;;9.70;2.63;;;;;;;19.43;100.00;102106.50;5285889;28;20072;-69
2023/08/21 00:34:19;;;;;;;9.05;3.35;;;;;;;19.37;100.00;102107.09;5284373;28;20451;-69
2023/08/21 00:36:50;;;;;;;7.28;3.08;;;;;;;19.33;100.00;102105.66;5282606;28;20028;-69
2023/08/21 00:39:22;;;;;;;7.40;2.60;;;;;;;19.29;100.00;102104.22;5274932;28;20407;-69
2023/08/21 00:41:53;;;;;;;5.78;2.50;;;;;;;19.19;100.00;102101.53;5277981;28;20038;-69
2023/08/21 00:44:24;;;;;;;6.60;2.78;;;;;;;19.14;100.00;102101.13;5282834;28;20031;-69
2023/08/21 00:46:56;;;;;;;9.38;3.00;;;;;;;19.14;100.00;102107.38;5276439;28;20083;-69
2023/08/21 00:49:27;;;;;;;7.47;2.97;;;;;;;19.12;100.00;102114.78;5282707;28;20107;-68
2023/08/21 00:52:00;;;;;;;9.57;3.17;;;;;;;19.14;100.00;102120.06;5285253;28;20125;-69
2023/08/21 00:54:32;;;;;;;8.63;3.30;;;;;;;19.10;100.00;102115.91;5284009;28;20028;-69
2023/08/21 00:57:03;;;;;;;4.38;2.50;;;;;;;19.07;100.00;102124.34;5279032;28;20032;-69
2023/08/21 00:59:35;;;;;;;6.72;2.80;;;;;;;19.06;100.00;102117.19;5284799;28;20043;-68
2023/08/21 01:02:07;;;;;;;7.10;3.45;;;;;;;19.16;100.00;102123.47;5281224;28;20058;-69
2023/08/21 01:04:38;;;;;;;7.88;3.00;;;;;;;19.08;100.00;102132.31;5291644;28;20024;-69
2023/08/21 01:07:10;;;;;;;8.18;3.10;;;;;;;19.18;100.00;102132.31;5287552;28;20039;-69
2023/08/21 01:09:50;;;;;;;5.57;2.70;;;;;;;19.10;100.00;102133.03;5294906;28;20026;-69
2023/08/21 01:13:05;;;;;;;11.70;3.25;;;;;;;19.24;100.00;102112.78;5278212;28;20086;-69
2023/08/21 01:15:38;;;;;;;7.72;2.83;;;;;;;19.15;100.00;102111.78;5279204;28;22036;-69
2023/08/21 01:18:10;;;;;;;8.73;3.20;;;;;;;19.02;100.00;102107.66;5281707;28;20753;-68
2023/08/21 01:20:42;;;;;;;8.70;2.92;;;;;;;18.97;100.00;102106.25;5283163;28;20020;-69
2023/08/21 01:23:33;;;;;;;8.43;3.05;;;;;;;19.06;100.00;102101.84;5278164;28;20077;-69
2023/08/21 01:26:05;;;;;;;6.90;3.15;;;;;;;18.86;100.00;102090.16;5275694;28;20023;-69
2023/08/21 01:28:37;;;;;;;10.10;3.20;;;;;;;18.83;100.00;102086.88;5278746;28;20415;-69
2023/08/21 01:31:11;;;;;;;7.95;3.50;;;;;;;18.88;100.00;102090.84;5280798;28;20083;-69
2023/08/21 01:33:47;;;;;;;8.43;3.50;;;;;;;18.75;100.00;102090.25;5290304;28;20035;-69
2023/08/21 01:36:20;;;;;;;8.77;3.60;;;;;;;18.80;100.00;102090.72;5277467;28;20024;-69
2023/08/21 01:38:52;;;;;;;7.45;3.05;;;;;;;18.67;100.00;102090.94;5282184;28;20066;-69
2023/08/21 01:41:24;;;;;;;9.15;3.72;;;;;;;18.74;100.00;102091.25;5284587;28;20028;-69
2023/08/21 01:43:56;;;;;;;8.73;3.42;;;;;;;18.66;100.00;102096.50;5288957;28;20028;-69
2023/08/21 01:46:27;;;;;;;8.82;3.92;;;;;;;18.61;100.00;102084.25;5290929;28;20046;-69
2023/08/21 01:48:59;;;;;;;8.98;4.13;;;;;;;18.53;100.00;102086.81;5285464;28;20031;-69
2023/08/21 01:51:30;;;;;;;7.68;4.20;;;;;;;18.50;100.00;102099.72;5281363;28;20566;-69
2023/08/21 01:54:01;;;;;;;8.95;4.10;;;;;;;18.50;100.00;102100.59;5285691;28;20024;-69
2023/08/21 01:56:33;;;;;;;7.07;3.85;;;;;;;18.56;100.00;102099.19;5283376;28;21235;-69
2023/08/21 01:59:06;;;;;;;7.88;4.07;;;;;;;18.53;100.00;102110.28;5282014;28;20028;-69
2023/08/21 02:01:37;;;;;;;8.13;3.72;;;;;;;18.45;100.00;102115.50;5284457;28;20171;-69
2023/08/21 02:04:09;;;;;;;7.57;4.07;;;;;;;18.32;100.00;102113.91;5290580;28;20084;-69
2023/08/21 02:06:40;;;;;;;9.20;4.10;;;;;;;18.46;100.00;102114.53;5290682;28;20120;-69
2023/08/21 02:09:12;;;;;;;10.40;4.40;;;;;;;18.40;100.00;102118.63;5277936;28;20551;-69
2023/08/21 02:11:43;;;;;;;10.20;4.03;;;;;;;18.44;100.00;102119.22;5288189;28;20052;-69
2023/08/21 02:14:14;;;;;;;8.93;4.20;;;;;;;18.36;100.00;102117.19;5279547;28;20500;-69
2023/08/21 02:16:46;;;;;;;9.27;4.05;;;;;;;18.34;100.00;102113.78;5286497;28;20090;-69
2023/08/21 02:19:17;;;;;;;10.93;4.22;;;;;;;18.35;100.00;102118.19;5289314;28;20507;-69
2023/08/21 02:21:49;;;;;;;9.07;4.20;;;;;;;18.34;100.00;102114.63;5286948;27;20024;-69
2023/08/21 02:24:20;;;;;;;9.30;4.20;;;;;;;18.28;100.00;102117.03;5281007;28;20027;-69
2023/08/21 02:26:51;;;;;;;7.18;4.05;;;;;;;18.28;100.00;102117.03;5281123;28;20427;-69
2023/08/21 02:29:22;;;;;;;10.40;4.43;;;;;;;18.19;100.00;102116.84;5277969;28;20833;-69
2023/08/21 02:31:54;;;;;;;7.35;4.18;;;;;;;18.23;100.00;102112.03;5280168;28;20724;-69
2023/08/21 02:34:26;;;;;;;7.68;3.72;;;;;;;18.20;100.00;102113.16;5301526;28;20086;-69
2023/08/21 02:36:58;;;;;;;7.57;4.15;;;;;;;18.14;100.00;102118.25;5285888;28;20028;-69
2023/08/21 02:39:29;;;;;;;9.00;4.15;;;;;;;18.12;100.00;102120.22;5284027;28;20086;-68
2023/08/21 02:42:01;;;;;;;9.05;4.50;;;;;;;18.07;100.00;102112.53;5279946;28;20036;-69
2023/08/21 02:44:32;;;;;;;9.02;4.20;;;;;;;18.00;100.00;102114.06;5281553;28;20081;-69
2023/08/21 02:47:04;;;;;;;9.82;4.70;;;;;;;17.94;100.00;102112.75;5271476;28;20134;-69
2023/08/21 02:49:35;;;;;;;10.05;4.55;;;;;;;17.87;100.00;102111.56;5282415;28;20506;-69
2023/08/21 02:52:07;;;;;;;9.00;4.55;;;;;;;17.97;100.00;102117.91;5280093;28;20462;-69
2023/08/21 02:54:38;;;;;;;9.70;4.20;;;;;;;17.94;100.00;102114.59;5277320;28;20690;-69
2023/08/21 02:57:09;;;;;;;8.50;4.35;;;;;;;17.88;100.00;102112.47;5273519;28;20052;-69
2023/08/21 02:59:41;;;;;;;14.65;4.93;;;;;;;17.87;100.00;102116.97;5279539;28;20034;-69
2023/08/21 03:02:12;;;;;;;11.05;3.92;;;;;;;17.74;100.00;102106.38;5283612;28;20406;-69
2023/08/21 03:04:44;;;;;;;9.60;4.10;;;;;;;17.67;100.00;102116.00;5276775;28;20040;-69
2023/08/21 03:07:16;;;;;;;10.77;4.20;;;;;;;17.62;100.00;102111.00;5278443;28;20023;-69
2023/08/21 03:09:48;;;;;;;11.73;4.72;;;;;;;17.73;100.00;102118.16;5277680;28;20154;-69
2023/08/21 03:12:19;;;;;;;10.75;4.28;;;;;;;17.59;100.00;102113.09;5275625;28;20056;-69
2023/08/21 03:14:50;;;;;;;15.38;4.60;;;;;;;17.59;100.00;102108.56;5274586;28;20084;-69
2023/08/21 03:17:23;;;;;;;12.85;4.57;;;;;;;17.60;100.00;102120.19;5279069;28;20030;-69
2023/08/21 03:19:54;;;;;;;13.70;4.32;;;;;;;17.52;100.00;102122.72;5273321;28;20033;-69
2023/08/21 03:22:26;;;;;;;9.52;3.88;;;;;;;17.58;100.00;102120.31;5287313;28;20055;-69
2023/08/21 03:24:57;;;;;;;9.88;4.03;;;;;;;17.49;100.00;102122.97;5273598;28;20035;-69
2023/08/21 03:27:29;;;;;;;7.93;4.10;;;;;;;17.50;100.00;102125.53;5271609;28;20028;-69
2023/08/21 03:30:01;;;;;;;10.10;4.20;;;;;;;17.67;100.00;102121.38;5281129;28;20180;-69
2023/08/21 03:32:33;;;;;;;11.13;4.20;;;;;;;17.69;100.00;102124.81;5274601;28;20031;-69
2023/08/21 03:35:04;;;;;;;14.85;4.30;;;;;;;17.60;100.00;102129.19;5272907;28;20027;-68
2023/08/21 03:37:36;;;;;;;11.43;4.78;;;;;;;17.56;100.00;102132.25;5275565;28;20566;-69
2023/08/21 03:40:08;;;;;;;8.60;4.57;;;;;;;17.55;100.00;102127.84;5285763;28;20029;-69
2023/08/21 03:42:40;;;;;;;10.80;4.25;;;;;;;17.60;100.00;102120.19;5278133;28;20032;-69
2023/08/21 03:45:11;;;;;;;11.75;4.57;;;;;;;17.59;100.00;102118.50;5273810;28;20032;-69
2023/08/21 03:47:42;;;;;;;9.57;4.10;;;;;;;17.57;100.00;102117.78;5273917;28;20024;-69
2023/08/21 03:50:14;;;;;;;12.80;5.13;;;;;;;17.48;100.00;102111.31;5282133;28;20082;-69
2023/08/21 03:52:45;;;;;;;10.93;4.60;;;;;;;17.45;100.00;102111.59;5281248;28;20082;-68
2023/08/21 03:55:16;;;;;;;9.27;4.60;;;;;;;17.45;100.00;102122.41;5289122;28;20032;-69
2023/08/21 03:57:48;;;;;;;8.23;4.13;;;;;;;17.41;100.00;102123.63;5280936;28;20030;-69
2023/08/21 04:00:19;;;;;;;8.77;3.83;;;;;;;17.36;100.00;102120.47;5277904;28;20022;-69
2023/08/21 04:02:51;;;;;;;10.35;4.63;;;;;;;17.36;100.00;102117.78;5283708;28;20052;-69
2023/08/21 04:05:22;;;;;;;10.95;4.78;;;;;;;17.35;100.00;102116.91;5282485;28;20521;-69
2023/08/21 04:07:54;;;;;;;8.90;4.80;;;;;;;17.41;100.00;102118.22;5283586;28;20024;-69
2023/08/21 04:10:25;;;;;;;9.38;4.55;;;;;;;17.37;100.00;102112.25;5283474;28;20028;-69
2023/08/21 04:12:56;;;;;;;12.65;4.82;;;;;;;17.26;100.00;102120.41;5280627;28;20478;-69
2023/08/21 04:15:28;;;;;;;10.30;4.32;;;;;;;17.36;100.00;102126.72;5280863;28;20028;-69
2023/08/21 04:17:59;;;;;;;11.45;4.50;;;;;;;17.42;100.00;102126.19;5283063;28;20024;-69
2023/08/21 04:20:31;;;;;;;9.90;4.20;;;;;;;17.33;100.00;102126.97;5280229;28;20032;-69
2023/08/21 04:23:03;;;;;;;7.90;4.22;;;;;;;17.31;100.00;102136.19;5281258;28;20661;-69
2023/08/21 04:25:34;;;;;;;7.43;3.90;;;;;;;17.32;100.00;102146.84;5278721;28;20416;-69
2023/08/21 04:28:07;;;;;;;9.07;4.38;;;;;;;17.25;100.00;102148.34;5284675;28;20020;-69
2023/08/21 04:30:41;;;;;;;11.15;4.78;;;;;;;17.26;100.00;102144.69;5278751;28;20122;-70
2023/08/21 04:33:13;;;;;;;9.77;5.00;;;;;;;17.37;100.00;102149.16;5283031;28;20026;-69
2023/08/21 04:35:44;;;;;;;9.23;4.68;;;;;;;17.41;100.00;102148.78;5283724;28;20028;-69
2023/08/21 04:38:15;;;;;;;13.18;4.80;;;;;;;17.40;100.00;102152.44;5286594;28;20036;-69
2023/08/21 04:40:47;;;;;;;10.48;4.57;;;;;;;17.36;100.00;102151.00;5283797;28;20241;-69
2023/08/21 04:43:18;;;;;;;7.95;4.50;;;;;;;17.34;100.00;102144.88;5285712;28;20024;-69
2023/08/21 04:45:52;;;;;;;9.07;4.70;;;;;;;17.47;100.00;102149.22;5283705;28;20028;-69
2023/08/21 04:48:24;;;;;;;;;;;;;;;17.59;100.00;102151.75;5282808;28;20078;-69
2023/08/21 04:50:55;;;;;;;10.95;4.97;;;;;;;17.55;100.00;102160.25;5285994;28;20018;-69
2023/08/21 04:53:26;;;;;;;8.93;4.45;;;;;;;17.72;100.00;102162.34;5279651;28;20554;-69
2023/08/21 04:56:00;;;;;;;11.30;4.97;;;;;;;17.53;100.00;102154.13;5279868;28;20263;-69
2023/08/21 04:58:31;;;;;;;8.20;5.07;;;;;;;17.56;100.00;102161.94;5281741;28;20031;-69
2023/08/21 05:01:04;;;;;;;9.57;5.22;;;;;;;17.68;100.00;102160.03;5289472;28;20461;-69
2023/08/21 05:03:36;;;;;;;8.30;4.63;;;;;;;17.64;100.00;102162.13;5282329;28;20401;-69
2023/08/21 05:06:07;;;;;;;9.45;4.53;;;;;;;17.61;100.00;102162.41;5293291;28;20640;-69
2023/08/21 05:08:39;;;;;;;9.80;5.32;;;;;;;17.50;100.00;102154.38;5290495;28;20032;-69
2023/08/21 05:11:10;;;;;;;9.48;4.55;;;;;;;17.44;100.00;102163.84;5292007;28;20149;-69
2023/08/21 05:13:42;;;;;;;11.80;4.90;;;;;;;17.55;100.00;102165.63;5286515;28;20375;-69
2023/08/21 05:16:13;;;;;;;9.98;5.38;;;;;;;17.39;100.00;102166.94;5288769;28;20032;-69
2023/08/21 05:18:45;;;;;;;10.73;5.22;;;;;;;17.39;100.00;102168.75;5292242;28;20054;-69
2023/08/21 05:21:16;;;;;;;11.73;5.25;;;;;;;17.36;100.00;102163.66;5291457;28;20360;-69
2023/08/21 05:23:47;;;;;;;9.98;5.57;;;;;;;17.38;100.00;102178.69;5288360;28;20055;-69
2023/08/21 05:26:19;;;;;;;12.45;5.47;;;;;;;17.35;100.00;102173.56;5286491;28;20054;-69
2023/08/21 05:28:51;;;;;;;9.35;5.00;;;;;;;17.34;100.00;102185.34;5286147;28;20490;-69
2023/08/21 05:31:22;;;;;;;13.35;5.50;;;;;;;17.39;100.00;102177.72;5299240;28;20034;-69
2023/08/21 05:33:54;;;;;;;11.38;5.57;;;;;;;17.46;100.00;102182.59;5286346;28;20024;-69
2023/08/21 05:36:25;;;;;;;10.77;5.60;;;;;;;17.42;100.00;102184.69;5296620;28;20079;-69
2023/08/21 05:38:57;;;;;;;11.48;6.38;;;;;;;17.51;100.00;102189.31;5290666;28;20382;-69
2023/08/21 05:41:28;;;;;;;10.55;5.93;;;;;;;17.43;100.00;102184.56;5295530;28;20466;-69
2023/08/21 05:43:59;;;;;;;10.13;5.82;;;;;;;17.50;100.00;102179.50;5293302;28;20019;-69
2023/08/21 05:46:31;;;;;;;11.63;6.22;;;;;;;17.49;100.00;102179.63;5291082;28;20119;-69
2023/08/21 05:49:02;;;;;;;11.20;5.57;;;;;;;17.51;100.00;102181.22;5283844;28;20099;-69
2023/08/21 05:51:34;;;;;;;9.65;5.55;;;;;;;17.59;100.00;102188.69;5288785;28;20036;-70
2023/08/21 05:54:05;;;;;;;10.32;6.40;;;;;;;17.67;100.00;102180.78;5291413;28;20031;-69
2023/08/21 05:56:37;;;;;;;10.25;6.05;;;;;;;17.67;100.00;102188.88;5279508;28;20028;-69
2023/08/21 05:59:10;;;;;;;15.52;7.35;;;;;;;17.57;100.00;102190.66;5281151;28;20283;-69
2023/08/21 06:01:42;;;;;;;10.63;6.60;;;;;;;17.64;100.00;102194.50;5285762;28;20101;-69
2023/08/21 06:04:13;;;;;;;12.68;7.38;;;;;;;17.63;100.00;102188.28;5282837;28;20040;-69
2023/08/21 06:06:44;;;;;;;14.05;7.85;;;;;;;17.66;100.00;102189.88;5287217;28;20035;-69
2023/08/21 06:09:17;;;;;;;14.80;7.40;;;;;;;17.67;100.00;102196.13;5283750;28;20489;-69
2023/08/21 06:11:48;;;;;;;11.02;7.32;;;;;;;17.63;100.00;102203.63;5293256;28;20067;-69
2023/08/21 06:14:20;;;;;;;11.90;7.60;;;;;;;17.65;100.00;102196.25;5286473;28;20115;-69
2023/08/21 06:16:51;;;;;;;15.25;8.00;;;;;;;17.67;100.00;102199.66;5290256;28;20063;-69
2023/08/21 06:19:23;;;;;;;11.50;7.30;;;;;;;17.72;100.00;102204.66;5283927;28;20428;-69
2023/08/21 06:21:55;;;;;;;12.73;7.38;;;;;;;17.74;100.00;102211.66;5281636;28;20031;-69
2023/08/21 06:24:27;;;;;;;15.23;7.90;;;;;;;17.95;100.00;102213.53;5285004;28;20028;-69
2023/08/21 06:26:58;;;;;;;13.32;8.38;;;;;;;18.12;100.00;102214.75;5283341;28;20400;-69
2023/08/21 06:29:30;;;;;;;12.10;8.05;;;;;;;18.10;100.00;102220.31;5284883;28;20035;-69
2023/08/21 06:32:01;;;;;;;12.27;7.10;;;;;;;18.13;100.00;102205.69;5283011;28;20138;-69
2023/08/21 06:34:33;;;;;;;12.30;8.10;;;;;;;18.16;100.00;102210.81;5281628;28;20113;-69
2023/08/21 06:37:04;;;;;;;14.43;8.02;;;;;;;18.12;100.00;102214.75;5286611;28;20051;-69
2023/08/21 06:39:35;;;;;;;10.57;7.68;;;;;;;18.25;100.00;102223.50;5281374;28;20043;-69
2023/08/21 06:42:07;;;;;;;13.13;7.75;;;;;;;18.29;100.00;102218.69;5284831;28;20048;-69
2023/08/21 06:44:40;;;;;;;10.93;7.57;;;;;;;18.33;100.00;102214.72;5288250;28;20505;-69
2023/08/21 06:47:11;;;;;;;14.32;8.02;;;;;;;18.39;100.00;102214.22;5280299;28;20024;-69
2023/08/21 06:49:42;;;;;;;13.73;7.90;;;;;;;18.49;100.00;102211.56;5281584;28;20184;-69
2023/08/21 06:52:14;;;;;;;13.57;7.85;;;;;;;18.56;100.00;102205.47;5287100;28;20051;-69
2023/08/21 06:54:45;;;;;;;10.95;6.90;;;;;;;18.65;100.00;102205.63;5292449;28;20043;-69
2023/08/21 06:57:17;;;;;;;11.68;6.72;;;;;;;18.73;100.00;102197.69;5301519;28;20027;-69
2023/08/21 06:59:48;;;;;;;14.25;6.85;;;;;;;18.86;100.00;102200.19;5287473;28;20179;-69
2023/08/21 07:02:20;;;;;;;9.95;6.38;;;;;;;19.19;100.00;102201.66;5292581;28;20051;-69
2023/08/21 07:04:51;;;;;;;11.35;6.07;;;;;;;19.22;100.00;102203.25;5287181;28;20583;-69
2023/08/21 07:07:23;;;;;;;12.10;5.82;;;;;;;19.23;100.00;102199.53;5296257;28;20085;-69
2023/08/21 07:09:54;;;;;;;12.30;5.85;;;;;;;19.27;100.00;102199.13;5293590;28;20024;-69
2023/08/21 07:12:26;;;;;;;10.40;5.88;;;;;;;19.33;100.00;102193.13;5296851;28;20032;-69
2023/08/21 07:14:57;;;;;;;9.98;6.00;;;;;;;19.47;100.00;102201.81;5290650;28;20019;-69
2023/08/21 07:17:28;;;;;;;12.10;6.22;;;;;;;19.50;100.00;102199.69;5290086;28;20024;-69
2023/08/21 07:20:00;;;;;;;10.45;5.68;;;;;;;19.57;100.00;102198.09;5287902;28;20730;-69
2023/08/21 07:22:31;;;;;;;11.45;5.47;;;;;;;19.60;100.00;102202.38;5289926;28;20037;-69
2023/08/21 07:25:04;;;;;;;12.38;6.15;;;;;;;19.73;100.00;102200.28;5290515;28;20434;-69
2023/08/21 07:27:35;;;;;;;10.82;5.57;;;;;;;19.76;100.00;102205.38;5295418;28;20027;-70
2023/08/21 07:30:07;;;;;;;10.88;5.35;;;;;;;19.87;100.00;102200.81;5282779;28;20382;-69
2023/08/21 07:32:39;;;;;;;11.45;4.63;;;;;;;19.87;100.00;102201.66;5290824;28;20525;-69
2023/08/21 07:35:10;;;;;;;11.15;3.92;;;;;;;19.89;100.00;102196.13;5294483;28;20032;-69
2023/08/21 07:37:45;;;;;;;6.88;3.80;;;;;;;20.02;100.00;102202.06;5291764;28;20030;-69
2023/08/21 07:40:16;;;;;;;7.97;3.88;;;;;;;20.08;100.00;102195.22;5292263;28;20039;-69
2023/08/21 07:42:48;;;;;;;10.93;5.40;;;;;;;20.11;100.00;102195.75;5294736;28;20028;-69
2023/08/21 07:45:19;;;;;;;11.93;5.75;;;;;;;20.20;100.00;102195.88;5282037;28;20047;-69
2023/08/21 07:47:50;;;;;;;9.57;5.75;;;;;;;20.18;100.00;102196.03;5289105;28;20107;-69
2023/08/21 07:50:22;;;;;;;10.32;5.95;;;;;;;20.21;100.00;102194.88;5289152;28;20367;-69
2023/08/21 07:52:53;;;;;;;13.30;6.13;;;;;;;20.30;100.00;102199.41;5290048;28;20692;-71
2023/08/21 07:55:25;;;;;;;13.40;6.00;;;;;;;20.33;100.00;102199.13;5289676;28;20070;-70
2023/08/21 07:57:57;;;;;;;9.85;4.63;;;;;;;20.54;100.00;102198.91;5278563;28;21281;-69
2023/08/21 08:00:28;;;;;;;7.88;3.40;;;;;;;20.43;100.00;102207.22;5285199;28;20036;-69
2023/08/21 08:02:59;;;;;;;7.95;3.75;;;;;;;20.50;100.00;102206.47;5287702;28;20028;-69
2023/08/21 08:05:31;;;;;;;9.68;3.60;;;;;;;20.61;100.00;102210.00;5287016;28;20027;-69
2023/08/21 08:08:03;;;;;;;11.13;4.63;;;;;;;20.70;100.00;102204.53;5288349;28;20025;-69
2023/08/21 08:10:39;;;;;;;7.78;4.20;;;;;;;20.92;100.00;102206.00;5291381;28;20027;-69
2023/08/21 08:13:10;;;;;;;8.05;3.60;;;;;;;21.01;100.00;102206.94;5289148;28;20048;-69
2023/08/21 08:15:42;;;;;;;6.95;3.53;;;;;;;21.03;100.00;102204.06;5292573;28;20114;-70
2023/08/21 08:18:13;;;;;;;7.55;4.85;;;;;;;21.31;100.00;102205.72;5297502;28;20394;-69
2023/08/21 08:20:45;;;;;;;8.60;3.67;;;;;;;21.45;100.00;102209.78;5297209;28;20107;-69
2023/08/21 08:23:16;;;;;;;9.20;3.70;;;;;;;21.52;100.00;102205.44;5295981;28;20085;-69
2023/08/21 08:25:48;;;;;;;10.52;4.18;;;;;;;21.71;100.00;102209.84;5290466;28;20031;-71
2023/08/21 08:28:19;;;;;;;6.55;2.88;;;;;;;21.87;100.00;102209.09;5296271;28;20062;-71
2023/08/21 08:30:51;;;;;;;9.35;3.22;;;;;;;21.90;100.00;102210.66;5289563;28;20046;-71
2023/08/21 08:33:22;;;;;;;8.68;3.22;;;;;;;22.05;100.00;102210.91;5294193;28;20032;-71
2023/08/21 08:35:54;;;;;;;7.32;3.20;;;;;;;22.15;100.00;102205.38;5295818;28;20072;-71
2023/08/21 08:38:25;;;;;;;7.07;3.42;;;;;;;22.11;100.00;102208.44;5296227;28;20024;-71
2023/08/21 08:40:58;;;;;;;9.95;3.50;;;;;;;22.17;100.00;102215.09;5292684;28;20053;-71
2023/08/21 08:43:31;;;;;;;6.97;3.13;;;;;;;22.29;100.00;102205.66;5296743;28;20038;-72
2023/08/21 08:46:04;;;;;;;7.50;3.13;;;;;;;22.43;100.00;102200.63;5293666;28;20032;-72
2023/08/21 08:48:37;;;;;;;8.45;2.75;;;;;;;22.49;100.00;102210.84;5289529;28;20036;-71
2023/08/21 08:51:09;;;;;;;7.93;2.50;;;;;;;22.60;100.00;102209.72;5294118;28;20521;-71
2023/08/21 08:53:42;;;;;;;8.95;3.83;;;;;;;22.58;100.00;102214.47;5296300;28;20101;-71
2023/08/21 08:56:14;;;;;;;6.72;2.53;;;;;;;22.74;100.00;102217.25;5290715;28;20062;-71
2023/08/21 08:58:46;;;;;;;5.68;1.27;;;;;;;22.73;100.00;102217.44;5291112;28;20363;-71
2023/08/21 09:01:18;;;;;;;5.70;1.48;;;;;;;22.82;100.00;102214.59;5294676;28;20444;-71
2023/08/21 09:03:50;;;;;;;5.95;1.90;;;;;;;22.79;100.00;102220.34;5292388;28;20039;-71
2023/08/21 09:06:21;;;;;;;7.20;2.78;;;;;;;22.73;100.00;102220.16;5289990;28;20023;-71
2023/08/21 09:08:54;;;;;;;6.18;2.13;;;;;;;22.80;100.00;102205.72;5292496;28;20374;-71
2023/08/21 09:11:26;;;;;;;8.45;2.72;;;;;;;22.90;100.00;102201.00;5289955;28;20031;-71
2023/08/21 09:13:58;;;;;;;5.18;2.70;;;;;;;22.95;100.00;102208.66;5295663;28;20123;-71
2023/08/21 09:16:29;;;;;;;5.07;2.00;;;;;;;22.93;100.00;102199.78;5291262;28;20123;-71
2023/08/21 09:19:01;;;;;;;5.57;1.80;;;;;;;22.99;100.00;102198.28;5291002;28;20028;-71
2023/08/21 09:21:32;;;;;;;8.32;2.28;;;;;;;22.98;100.00;102196.59;5291893;28;20047;-71
2023/08/21 09:24:04;;;;;;;8.85;2.38;;;;;;;22.98;100.00;102197.44;5288265;28;20028;-71
2023/08/21 09:26:37;;;;;;;5.80;1.85;;;;;;;22.95;100.00;102203.19;5295830;28;20030;-71
2023/08/21 09:29:08;;;;;;;6.63;2.33;;;;;;;22.98;100.00;102202.88;5290018;28;20032;-71
2023/08/21 09:31:40;;;;;;;9.27;2.55;;;;;;;22.90;100.00;102205.59;5291841;28;20452;-72
2023/08/21 09:34:11;;;;;;;7.68;2.97;;;;;;;22.95;100.00;102191.47;5293207;28;20047;-72
2023/08/21 09:36:55;;;;;;;7.07;2.75;;;;;;;23.11;100.00;102197.00;5289965;28;20019;-71
2023/08/21 09:39:33;;;;;;;8.70;2.60;;;;;;;23.04;100.00;102191.34;5296118;28;20394;-72
2023/08/21 09:42:08;;;;;;;7.97;2.20;;;;;;;23.09;100.00;102190.88;5291226;28;20321;-71
2023/08/21 09:44:42;;;;;;;8.80;2.00;;;;;;;23.18;100.00;102199.88;5292943;28;20016;-72
2023/08/21 09:47:14;;;;;;;7.97;1.80;;;;;;;23.18;100.00;102189.84;5295243;28;20020;-72
2023/08/21 09:49:45;;;;;;;6.88;1.80;;;;;;;23.29;100.00;102189.53;5293544;28;20572;-71
2023/08/21 09:52:17;;;;;;;8.48;1.73;;;;;;;23.41;100.00;102192.75;5292127;28;20028;-72
2023/08/21 09:54:49;;;;;;;9.55;2.25;;;;;;;23.43;100.00;102188.03;5292597;28;20058;-72
2023/08/21 09:57:22;;;;;;;5.57;1.70;;;;;;;23.50;100.00;102190.91;5295252;28;20036;-72
2023/08/21 09:59:54;;;;;;;7.40;1.20;;;;;;;23.44;100.00;102186.97;5292605;28;20059;-72
2023/08/21 10:03:09;;;;;;;5.90;1.40;;;;;;;23.40;100.00;102191.06;5309302;27;20415;-71
2023/08/21 10:05:41;;;;;;;6.22;1.70;;;;;;;23.47;100.00;102186.66;5309818;28;20042;-71
2023/08/21 10:08:15;;;;;;;10.18;2.30;;;;;;;23.50;100.00;102185.44;5308945;28;20036;-71
2023/08/21 10:10:46;;;;;;;;;;;;;;;23.73;100.00;102187.50;5313843;28;20020;-71
2023/08/21 10:13:18;;;;;;;6.43;1.92;;;;;;;23.60;100.00;102182.56;5302032;28;19968;-70
2023/08/21 10:15:50;;;;;;;6.40;1.67;;;;;;;23.75;100.00;102180.00;5303360;28;20065;-71
2023/08/21 10:18:24;;;;;;;6.18;1.50;;;;;;;23.68;100.00;102177.97;5305164;28;20023;-70
2023/08/21 10:20:56;;;;;;;5.85;1.25;;;;;;;23.81;100.00;102169.28;5303376;28;20059;-71
2023/08/21 10:23:29;;;;;;;7.88;2.03;;;;;;;23.80;100.00;102177.66;5308840;28;22130;-71
2023/08/21 10:26:04;;;;;;;9.43;1.60;;;;;;;23.88;100.00;102177.63;5305578;28;20040;-71
2023/08/21 10:28:59;;;;;;;7.32;1.58;;;;;;;23.94;100.00;102173.34;5301332;28;20139;-71
2023/08/21 10:31:38;;;;;;;;;;;;;;;24.07;100.00;102170.94;5312391;28;20208;-72
2023/08/21 10:34:13;;;;;;;6.00;1.45;;;;;;;23.86;100.00;102175.06;5302483;28;19916;-71
2023/08/21 10:36:44;;;;;;;7.38;1.60;;;;;;;23.94;100.00;102176.09;5303560;28;20051;-73
2023/08/21 10:39:24;;;;;;;3.35;1.00;;;;;;;23.90;100.00;102172.84;5308945;27;20031;-73
2023/08/21 10:42:05;;;;;;;5.68;1.38;;;;;;;24.00;100.00;102172.66;5306286;28;20035;-72
2023/08/21 10:44:42;;;;;;;5.80;1.40;;;;;;;23.96;100.00;102169.44;5309500;28;20215;-72
2023/08/21 10:47:16;;;;;;;5.45;1.45;;;;;;;24.04;100.00;102174.00;5308749;28;20035;-72
2023/08/21 10:49:51;;;;;;;6.38;1.60;;;;;;;24.16;100.00;102169.03;5306924;28;20144;-72
2023/08/21 10:52:25;;;;;;;3.97;1.40;;;;;;;24.22;100.00;102174.66;5308932;28;20069;-71
2023/08/21 10:54:58;;;;;;;5.10;1.48;;;;;;;24.40;100.00;102182.59;5300812;28;20059;-72
2023/08/21 10:57:31;;;;;;;7.50;1.40;;;;;;;24.35;100.00;102179.53;5303023;28;20024;-72
2023/08/21 11:00:04;;;;;;;5.22;1.40;;;;;;;24.31;100.00;102180.91;5303335;28;20042;-72
2023/08/21 11:02:38;;;;;;;5.47;1.63;;;;;;;24.35;100.00;102184.97;5304777;28;20041;-73
2023/08/21 11:05:10;;;;;;;4.97;1.60;;;;;;;24.39;100.00;102178.19;5306640;28;20028;-72
2023/08/21 11:07:43;;;;;;;6.40;1.55;;;;;;;24.36;100.00;102173.06;5305609;28;20031;-75
2023/08/21 11:10:22;;;;;;;6.80;1.70;;;;;;;24.34;100.00;102172.38;5310952;28;20385;-74
2023/08/21 11:12:55;;;;;;;5.47;1.98;;;;;;;24.19;100.00;102168.69;5303203;28;20052;-74
2023/08/21 11:15:28;;;;;;;6.93;1.60;;;;;;;24.10;100.00;102169.72;5287486;28;20028;-73
2023/08/21 11:18:03;;;;;;;6.93;2.00;;;;;;;24.03;100.00;102164.16;5284699;28;20114;-73
2023/08/21 11:20:35;;;;;;;6.95;1.58;;;;;;;24.19;100.00;102171.41;5283523;28;20064;-73
2023/08/21 11:23:07;;;;;;;5.30;1.85;;;;;;;24.19;100.00;102158.63;5287333;28;20069;-72
2023/08/21 11:25:40;;;;;;;5.40;1.30;;;;;;;24.14;100.00;102157.44;5288723;28;20471;-72
2023/08/21 11:28:16;;;;;;;5.72;1.50;;;;;;;24.37;100.00;102158.38;5284828;28;20422;-72
2023/08/21 11:30:47;;;;;;;6.28;1.70;;;;;;;24.35;100.00;102163.16;5287877;28;20013;-72
2023/08/21 11:33:19;;;;;;;6.25;1.90;;;;;;;24.42;100.00;102164.16;5279344;28;20379;-72
2023/08/21 11:35:53;;;;;;;6.85;1.67;;;;;;;24.50;100.00;102159.72;5292911;28;20047;-72
2023/08/21 11:38:26;;;;;;;4.53;1.80;;;;;;;24.45;100.00;102158.38;5294661;28;20118;-72